createdAt,value
2022-09-12T00:01:11.653Z,98855.00
2022-09-12T00:03:40.092Z,98853.47
2022-09-12T00:06:21.851Z,98856.28
2022-09-12T00:08:50.222Z,98859.66
2022-09-12T00:11:17.681Z,98855.31
2022-09-12T00:13:44.432Z,98853.41
2022-09-12T00:16:21.171Z,98856.84
2022-09-12T00:18:48.792Z,98849.81
2022-09-12T00:21:17.661Z,98854.22
2022-09-12T00:23:45.649Z,98855.78
2022-09-12T00:26:12.889Z,98847.66
2022-09-12T00:28:41.378Z,98858.16
2022-09-12T00:31:13.852Z,98852.03
2022-09-12T00:33:40.868Z,98857.47
2022-09-12T00:36:10.406Z,98851.09
2022-09-12T00:38:38.948Z,98852.69
2022-09-12T00:41:06.333Z,98860.88
2022-09-12T00:43:37.282Z,98850.06
2022-09-12T00:46:13.224Z,98847.44
2022-09-12T00:48:46.866Z,98850.84
2022-09-12T00:51:14.261Z,98843.53
2022-09-12T00:53:44.540Z,98841.72
2022-09-12T00:56:17.411Z,98838.94
2022-09-12T00:59:17.009Z,98834.66
2022-09-12T01:01:47.010Z,98828.59
2022-09-12T01:04:18.284Z,98827.72
2022-09-12T01:06:46.630Z,98820.88
2022-09-12T01:09:17.497Z,98836.38
2022-09-12T01:11:47.248Z,98831.94
2022-09-12T01:14:15.729Z,98832.16
2022-09-12T01:16:43.436Z,98828.53
2022-09-12T01:19:32.243Z,98827.16
2022-09-12T01:22:31.297Z,98820.78
2022-09-12T01:25:16.131Z,98821.59
2022-09-12T01:28:09.627Z,98816.59
2022-09-12T01:31:04.333Z,98814.69
2022-09-12T01:33:44.800Z,98809.44
2022-09-12T01:36:34.732Z,98806.81
2022-09-12T01:39:09.156Z,98812.59
2022-09-12T01:42:35.066Z,98808.06
2022-09-12T01:45:14.158Z,98816.75
2022-09-12T01:47:45.610Z,98810.97
2022-09-12T01:50:22.997Z,98810.59
2022-09-12T01:52:54.678Z,98803.72
2022-09-12T01:55:30.648Z,98800.50
2022-09-12T01:58:06.366Z,98795.03
2022-09-12T02:00:39.727Z,98800.50
2022-09-12T02:03:15.216Z,98791.75
2022-09-12T02:05:50.554Z,98796.47
2022-09-12T02:08:31.325Z,98797.41
2022-09-12T02:11:12.783Z,98794.13
2022-09-12T02:13:47.692Z,98793.34
2022-09-12T02:16:40.567Z,98792.03
2022-09-12T02:19:18.819Z,98796.53
2022-09-12T02:22:27.485Z,98799.75
2022-09-12T02:24:59.085Z,98806.38
2022-09-12T02:27:49.655Z,98797.84
2022-09-12T02:30:19.826Z,98794.91
2022-09-12T02:32:55.714Z,98799.44
2022-09-12T02:35:25.248Z,98791.47
2022-09-12T02:38:02.512Z,98793.84
2022-09-12T02:40:30.789Z,98789.06
2022-09-12T02:42:57.882Z,98782.53
2022-09-12T02:45:24.904Z,98782.72
2022-09-12T02:48:08.479Z,98785.47
2022-09-12T02:50:35.731Z,98780.63
2022-09-12T02:53:05.295Z,98782.00
2022-09-12T02:55:34.103Z,98786.78
2022-09-12T02:58:08.252Z,98791.91
2022-09-12T03:00:45.228Z,98791.47
2022-09-12T03:03:48.770Z,98797.41
2022-09-12T03:06:31.089Z,98789.22
2022-09-12T03:09:08.068Z,98790.50
2022-09-12T03:11:50.985Z,98788.34
2022-09-12T03:14:44.008Z,98791.63
2022-09-12T03:17:27.457Z,98786.06
2022-09-12T03:19:56.869Z,98783.13
2022-09-12T03:22:35.807Z,98779.69
2022-09-12T03:25:14.455Z,98783.13
2022-09-12T03:27:57.123Z,98779.56
2022-09-12T03:30:23.745Z,98782.94
2022-09-12T03:32:53.211Z,98775.78
2022-09-12T03:35:23.382Z,98772.72
2022-09-12T03:37:51.153Z,98778.97
2022-09-12T03:40:18.020Z,98784.44
2022-09-12T03:42:44.636Z,98786.03
2022-09-12T03:45:12.101Z,98789.81
2022-09-12T03:47:39.591Z,98793.34
2022-09-12T03:50:06.952Z,98790.28
2022-09-12T03:52:33.757Z,98796.16
2022-09-12T03:55:00.425Z,98795.41
2022-09-12T03:57:27.165Z,98794.03
2022-09-12T03:59:54.009Z,98787.78
2022-09-12T04:02:21.364Z,98790.16
2022-09-12T04:04:48.822Z,98787.66
2022-09-12T04:07:16.641Z,98789.03
2022-09-12T04:09:45.237Z,98785.38
2022-09-12T04:12:12.696Z,98787.78
2022-09-12T04:14:39.528Z,98797.78
2022-09-12T04:17:07.331Z,98785.97
2022-09-12T04:19:34.344Z,98792.34
2022-09-12T04:22:01.021Z,98794.50
2022-09-12T04:24:28.041Z,98794.03
2022-09-12T04:26:55.054Z,98800.81
2022-09-12T04:29:22.141Z,98789.44
2022-09-12T04:31:49.134Z,98794.91
2022-09-12T04:34:15.636Z,98800.56
2022-09-12T04:36:42.750Z,98793.41
2022-09-12T04:39:10.646Z,98785.25
2022-09-12T04:41:39.449Z,98782.13
2022-09-12T04:44:08.989Z,98782.81
2022-09-12T04:46:41.496Z,98781.72
2022-09-12T04:49:08.562Z,98781.22
2022-09-12T04:51:39.459Z,98783.16
2022-09-12T04:54:17.855Z,98784.31
2022-09-12T04:56:46.901Z,98784.22
2022-09-12T04:59:15.797Z,98788.31
2022-09-12T05:40:23.435Z,98803.31
2022-09-12T05:42:50.230Z,98802.59
2022-09-12T05:45:30.358Z,98801.41
2022-09-12T05:48:06.229Z,98795.63
2022-09-12T05:50:33.783Z,98798.31
2022-09-12T05:53:00.497Z,98800.28
2022-09-12T05:55:33.229Z,98804.19
2022-09-12T05:58:00.155Z,98807.38
2022-09-12T06:00:33.438Z,98809.34
2022-09-12T06:03:02.199Z,98815.94
2022-09-12T06:22:21.766Z,98825.66
2022-09-12T06:40:51.202Z,98834.25
2022-09-12T07:45:24.443Z,98810.34
2022-09-12T07:47:55.332Z,98815.03
2022-09-12T07:53:47.655Z,98802.06
2022-09-12T07:56:16.343Z,98817.09
2022-09-12T07:58:47.834Z,98812.72
2022-09-12T08:01:25.740Z,98813.00
2022-09-12T08:03:59.923Z,98813.00
2022-09-12T08:06:33.856Z,98819.34
2022-09-12T08:09:10.830Z,98813.16
2022-09-12T08:11:42.355Z,98818.09
2022-09-12T08:14:12.059Z,98811.38
2022-09-12T08:17:00.426Z,98814.28
2022-09-12T08:19:48.591Z,98805.59
2022-09-12T08:22:37.269Z,98803.56
2022-09-12T08:25:09.000Z,98793.78
2022-09-12T08:27:40.977Z,98798.69
2022-09-12T08:30:20.858Z,98788.59
2022-09-12T08:32:53.884Z,98795.25
2022-09-12T08:35:27.192Z,98788.50
2022-09-12T08:38:05.207Z,98787.41
2022-09-12T08:40:43.906Z,98778.97
2022-09-12T08:43:36.269Z,98785.25
2022-09-12T08:46:17.174Z,98776.69
2022-09-12T08:49:10.450Z,98768.31
2022-09-12T08:51:38.560Z,98766.94
2022-09-12T08:54:33.148Z,98769.56
2022-09-12T08:57:21.776Z,98769.13
2022-09-12T09:00:02.215Z,98770.06
2022-09-12T09:03:02.639Z,98770.41
2022-09-12T09:06:05.388Z,98773.47
2022-09-12T09:08:57.103Z,98776.78
2022-09-12T09:11:55.166Z,98772.75
2022-09-12T09:14:50.376Z,98778.63
2022-09-12T09:17:31.887Z,98777.72
2022-09-12T09:20:24.970Z,98766.75
2022-09-12T09:23:07.593Z,98767.63
2022-09-12T09:26:01.307Z,98766.59
2022-09-12T09:28:54.529Z,98758.16
2022-09-12T09:31:36.762Z,98758.44
2022-09-12T09:34:22.258Z,98756.59
2022-09-12T09:37:20.995Z,98754.13
2022-09-12T09:40:23.135Z,98747.53
2022-09-12T09:43:09.386Z,98741.47
2022-09-12T09:45:48.081Z,98735.56
2022-09-12T09:51:46.422Z,98740.41
2022-09-12T09:54:33.392Z,98733.38
2022-09-12T09:57:55.747Z,98733.50
2022-09-12T10:03:41.668Z,98721.66
2022-09-12T10:06:35.445Z,98715.34
2022-09-12T10:11:13.779Z,98714.88
2022-09-12T10:15:32.971Z,98719.19
2022-09-12T10:18:03.296Z,98725.53
2022-09-12T10:20:40.041Z,98723.00
2022-09-12T10:23:19.021Z,98720.31
2022-09-12T10:26:06.575Z,98710.63
2022-09-12T10:28:46.939Z,98719.09
2022-09-12T10:31:33.155Z,98713.22
2022-09-12T10:34:05.983Z,98706.56
2022-09-12T10:36:40.359Z,98704.19
2022-09-12T10:39:14.579Z,98714.66
2022-09-12T10:41:49.235Z,98710.00
2022-09-12T10:44:33.912Z,98707.28
2022-09-12T10:50:33.179Z,98707.94
2022-09-12T10:53:34.473Z,98699.03
2022-09-12T10:56:21.634Z,98700.72
2022-09-12T10:59:35.866Z,98691.81
2022-09-12T11:02:41.433Z,98692.72
2022-09-12T11:05:43.364Z,98699.22
2022-09-12T11:08:44.863Z,98698.00
2022-09-12T11:15:06.751Z,98695.38
2022-09-12T11:17:58.617Z,98694.56
2022-09-12T11:21:29.713Z,98691.13
2022-09-12T11:24:26.504Z,98681.19
2022-09-12T11:27:39.363Z,98680.56
2022-09-12T11:30:20.285Z,98682.72
2022-09-12T11:32:58.597Z,98672.34
2022-09-12T11:35:32.535Z,98676.44
2022-09-12T11:38:37.764Z,98667.06
2022-09-12T11:41:44.177Z,98668.09
2022-09-12T11:44:19.647Z,98661.28
2022-09-12T11:47:17.334Z,98662.59
2022-09-12T11:49:57.570Z,98662.28
2022-09-12T11:52:31.290Z,98652.69
2022-09-12T11:58:00.895Z,98654.75
2022-09-12T12:00:52.839Z,98651.78
2022-09-12T12:03:57.909Z,98646.88
2022-09-12T12:06:57.681Z,98648.06
2022-09-12T12:09:55.291Z,98649.09
2022-09-12T12:12:43.096Z,98642.84
2022-09-12T12:15:24.440Z,98640.50
2022-09-12T12:18:21.030Z,98640.28
2022-09-12T12:20:56.880Z,98635.09
2022-09-12T12:23:37.018Z,98631.81
2022-09-12T12:26:15.999Z,98631.84
2022-09-12T12:28:44.175Z,98625.97
2022-09-12T12:31:12.698Z,98619.81
2022-09-12T12:33:40.635Z,98617.50
2022-09-12T12:36:31.717Z,98617.44
2022-09-12T12:39:03.491Z,98609.38
2022-09-12T12:41:36.425Z,98616.63
2022-09-12T12:44:41.746Z,98609.97
2022-09-12T12:47:24.116Z,98615.22
2022-09-12T12:50:03.680Z,98613.47
2022-09-12T12:52:35.450Z,98598.41
2022-09-12T12:55:05.064Z,98604.53
2022-09-12T12:57:48.177Z,98603.63
2022-09-12T13:00:22.962Z,98601.41
2022-09-12T13:03:09.715Z,98612.09
2022-09-12T13:05:48.375Z,98593.88
2022-09-12T13:08:25.216Z,98595.28
2022-09-12T13:11:17.080Z,98586.88
2022-09-12T13:13:53.137Z,98591.47
2022-09-12T13:16:59.263Z,98592.41
2022-09-12T13:19:35.574Z,98581.78
2022-09-12T13:22:11.166Z,98575.50
2022-09-12T13:24:49.775Z,98573.72
2022-09-12T13:27:23.624Z,98570.53
2022-09-12T13:30:05.801Z,98574.66
2022-09-12T13:32:38.284Z,98563.22
2022-09-12T13:35:24.878Z,98577.72
2022-09-12T13:38:25.703Z,98562.78
2022-09-12T13:41:01.232Z,98555.41
2022-09-12T13:43:44.341Z,98550.88
2022-09-12T13:49:06.976Z,98550.53
2022-09-12T13:51:42.523Z,98554.16
2022-09-12T13:54:24.591Z,98542.53
2022-09-12T13:56:57.291Z,98548.19
2022-09-12T13:59:28.144Z,98538.56
2022-09-12T14:01:59.124Z,98550.84
2022-09-12T14:04:50.176Z,98543.31
2022-09-12T14:07:31.753Z,98542.06
2022-09-12T14:10:01.992Z,98537.50
2022-09-12T14:12:46.207Z,98545.69
2022-09-12T14:15:41.520Z,98548.97
2022-09-12T14:18:32.419Z,98537.53
2022-09-12T14:21:12.744Z,98542.22
2022-09-12T14:23:51.449Z,98534.38
2022-09-12T14:26:24.925Z,98530.00
2022-09-12T14:28:56.605Z,98530.47
2022-09-12T14:31:35.601Z,98527.19
2022-09-12T14:34:21.330Z,98523.09
2022-09-12T14:36:52.995Z,98520.72
2022-09-12T14:39:43.355Z,98516.50
2022-09-12T14:42:22.258Z,98518.38
2022-09-12T14:45:23.712Z,98520.13
2022-09-12T14:47:59.388Z,98516.97
2022-09-12T14:50:35.598Z,98507.88
2022-09-12T14:56:20.577Z,98515.69
2022-09-12T15:01:47.436Z,98501.78
2022-09-12T15:04:53.102Z,98499.06
2022-09-12T15:07:52.903Z,98503.78
2022-09-12T15:10:32.739Z,98496.13
2022-09-12T15:13:10.640Z,98499.84
2022-09-12T15:15:43.278Z,98492.22
2022-09-12T15:18:21.366Z,98488.97
2022-09-12T15:24:18.814Z,98489.09
2022-09-12T15:29:58.467Z,98489.19
2022-09-12T16:14:38.293Z,98465.59
2022-09-12T16:28:27.012Z,98454.28
2022-09-12T16:36:27.603Z,98443.59
2022-09-12T16:39:05.335Z,98439.94
2022-09-12T16:44:20.909Z,98439.13
2022-09-12T16:46:49.968Z,98427.06
2022-09-12T16:49:20.980Z,98435.34
2022-09-12T16:51:55.714Z,98433.28
2022-09-12T16:54:23.889Z,98430.72
2022-09-12T17:02:38.931Z,98423.84
2022-09-12T17:07:54.909Z,98423.59
2022-09-12T17:10:32.175Z,98421.16
2022-09-12T17:18:45.154Z,98416.00
2022-09-12T17:21:19.004Z,98415.94
2022-09-12T17:23:59.321Z,98418.31
2022-09-12T17:54:43.549Z,98431.38
2022-09-12T17:57:13.010Z,98430.94
2022-09-12T17:59:50.827Z,98436.84
2022-09-12T18:02:21.770Z,98432.84
2022-09-12T18:04:50.588Z,98438.69
2022-09-12T18:07:24.659Z,98437.47
2022-09-12T18:10:03.188Z,98429.50
2022-09-12T18:12:49.264Z,98436.94
2022-09-12T18:20:51.831Z,98439.09
2022-09-12T18:26:14.805Z,98437.09
2022-09-12T18:28:48.961Z,98439.63
2022-09-12T18:31:19.000Z,98427.91
2022-09-12T18:39:27.688Z,98435.91
2022-09-12T18:41:58.922Z,98435.97
2022-09-12T18:49:58.412Z,98440.75
2022-09-12T19:11:55.027Z,98435.69
2022-09-12T19:22:39.607Z,98436.94
2022-09-12T19:27:59.581Z,98435.19
2022-09-12T19:30:51.425Z,98433.31
2022-09-12T19:33:30.246Z,98432.22
2022-09-12T19:36:10.678Z,98430.69
2022-09-12T19:38:52.190Z,98428.59
2022-09-12T19:41:23.446Z,98425.47
2022-09-12T19:43:57.027Z,98417.81
2022-09-12T19:46:28.581Z,98422.34
2022-09-12T19:51:41.893Z,98423.16
2022-09-12T19:54:13.708Z,98434.16
2022-09-12T19:57:04.129Z,98430.53
2022-09-12T19:59:33.361Z,98441.88
2022-09-12T22:15:40.129Z,98397.94
2022-09-12T22:40:51.892Z,98382.97
2022-09-12T22:43:19.817Z,98380.56
2022-09-12T22:45:50.256Z,98386.63
2022-09-12T22:48:20.494Z,98393.50
2022-09-12T22:53:31.411Z,98377.16
2022-09-12T23:07:04.294Z,98368.00
2022-09-12T23:43:06.061Z,98345.09
